createdAt,value
2022-08-23T00:01:50.897Z,6.85
2022-08-23T00:04:23.405Z,7.75
2022-08-23T00:07:00.491Z,7.88
2022-08-23T00:09:30.005Z,8.65
2022-08-23T00:12:07.292Z,7.53
2022-08-23T00:14:37.272Z,6.82
2022-08-23T00:17:05.634Z,7.75
2022-08-23T00:19:33.727Z,7.55
2022-08-23T00:22:00.484Z,8.07
2022-08-23T00:24:30.105Z,8.13
2022-08-23T00:27:00.520Z,7.18
2022-08-23T00:29:30.477Z,7.03
2022-08-23T00:31:57.696Z,7.28
2022-08-23T00:34:30.422Z,8.10
2022-08-23T00:36:58.628Z,11.20
2022-08-23T00:39:29.543Z,7.40
2022-08-23T00:41:59.111Z,6.80
2022-08-23T00:44:32.455Z,7.00
2022-08-23T00:46:59.412Z,11.90
2022-08-23T00:49:26.847Z,8.70
2022-08-23T00:51:59.978Z,8.20
2022-08-23T00:54:29.234Z,8.70
2022-08-23T00:56:58.666Z,10.95
2022-08-23T00:59:25.658Z,7.97
2022-08-23T01:01:52.762Z,9.87
2022-08-23T01:04:23.846Z,7.68
2022-08-23T01:06:55.994Z,7.43
2022-08-23T01:09:24.035Z,6.13
2022-08-23T01:11:56.620Z,8.10
2022-08-23T01:14:28.319Z,10.03
2022-08-23T01:16:59.951Z,7.45
2022-08-23T01:19:30.426Z,8.52
2022-08-23T01:22:04.926Z,7.97
2022-08-23T01:24:59.936Z,7.47
2022-08-23T01:27:23.611Z,10.10
2022-08-23T01:29:50.358Z,9.35
2022-08-23T01:32:21.735Z,7.63
2022-08-23T01:34:51.669Z,8.48
2022-08-23T01:37:19.993Z,7.13
2022-08-23T01:39:48.167Z,9.07
2022-08-23T01:42:14.926Z,10.00
2022-08-23T01:44:41.620Z,8.07
2022-08-23T01:47:08.337Z,9.00
2022-08-23T01:49:35.192Z,8.63
2022-08-23T01:52:01.932Z,8.23
2022-08-23T01:54:28.634Z,9.05
2022-08-23T01:56:56.737Z,8.70
2022-08-23T01:59:23.731Z,8.65
2022-08-23T02:01:50.510Z,8.75
2022-08-23T02:04:17.224Z,8.17
2022-08-23T02:06:43.867Z,11.57
2022-08-23T02:09:16.109Z,9.25
2022-08-23T02:11:45.288Z,7.30
2022-08-23T02:14:16.754Z,8.30
2022-08-23T02:16:58.135Z,10.60
2022-08-23T02:19:32.330Z,8.52
2022-08-23T02:21:59.094Z,9.50
2022-08-23T02:24:26.530Z,10.10
2022-08-23T02:26:57.721Z,7.93
2022-08-23T02:29:27.246Z,9.73
2022-08-23T02:31:54.082Z,8.05
2022-08-23T02:34:22.338Z,8.55
2022-08-23T02:36:51.498Z,6.90
2022-08-23T02:39:18.712Z,8.70
2022-08-23T02:41:45.437Z,8.93
2022-08-23T02:44:12.340Z,8.85
2022-08-23T02:46:41.075Z,8.63
2022-08-23T02:49:07.827Z,9.32
2022-08-23T02:51:34.603Z,8.77
2022-08-23T02:54:01.763Z,10.70
2022-08-23T02:56:30.600Z,8.45
2022-08-23T02:58:57.287Z,7.65
2022-08-23T03:01:26.200Z,7.35
2022-08-23T03:03:54.767Z,7.97
2022-08-23T03:06:27.905Z,7.63
2022-08-23T03:08:54.803Z,10.00
2022-08-23T03:11:21.840Z,11.85
2022-08-23T03:13:49.327Z,8.73
2022-08-23T03:16:17.143Z,8.95
2022-08-23T03:18:43.958Z,9.13
2022-08-23T03:21:12.074Z,8.55
2022-08-23T03:23:39.368Z,8.43
2022-08-23T03:26:08.171Z,9.68
2022-08-23T03:28:36.301Z,8.05
2022-08-23T03:31:03.120Z,8.70
2022-08-23T03:33:29.903Z,9.32
2022-08-23T03:35:58.964Z,10.63
2022-08-23T03:38:27.424Z,7.63
2022-08-23T03:40:54.327Z,8.93
2022-08-23T03:43:21.443Z,8.13
2022-08-23T03:45:54.145Z,9.93
2022-08-23T03:48:20.796Z,10.43
2022-08-23T03:50:47.497Z,9.73
2022-08-23T03:53:14.113Z,11.95
2022-08-23T03:55:43.303Z,11.17
2022-08-23T03:58:11.212Z,8.55
2022-08-23T04:00:38.449Z,8.70
2022-08-23T04:03:05.457Z,7.88
2022-08-23T04:05:32.152Z,9.75
2022-08-23T04:07:59.477Z,9.20
2022-08-23T04:10:26.284Z,7.40
2022-08-23T04:12:54.364Z,8.70
2022-08-23T04:15:21.069Z,7.93
2022-08-23T04:17:47.891Z,8.65
2022-08-23T04:20:14.953Z,9.83
2022-08-23T04:22:41.617Z,7.57
2022-08-23T04:25:14.069Z,9.35
2022-08-23T04:27:57.337Z,9.77
2022-08-23T04:30:24.391Z,9.80
2022-08-23T04:32:52.463Z,9.07
2022-08-23T04:35:19.051Z,9.07
2022-08-23T04:37:45.751Z,9.82
2022-08-23T04:40:12.747Z,11.10
2022-08-23T04:42:39.554Z,11.07
2022-08-23T04:45:09.621Z,12.60
2022-08-23T04:47:36.481Z,10.27
2022-08-23T04:50:03.396Z,10.70
2022-08-23T04:52:30.203Z,10.07
2022-08-23T04:54:56.880Z,10.38
2022-08-23T04:57:23.520Z,13.37
2022-08-23T04:59:50.249Z,11.82
2022-08-23T05:02:18.280Z,13.85
2022-08-23T05:04:44.913Z,10.68
2022-08-23T05:07:11.677Z,12.93
2022-08-23T05:09:38.307Z,9.53
2022-08-23T05:12:05.295Z,10.80
2022-08-23T05:14:32.049Z,13.82
2022-08-23T05:16:58.691Z,10.75
2022-08-23T05:19:28.917Z,9.93
2022-08-23T05:21:57.238Z,13.10
2022-08-23T05:24:24.136Z,14.60
2022-08-23T05:26:50.845Z,11.27
2022-08-23T05:29:17.508Z,8.52
2022-08-23T05:31:44.233Z,10.05
2022-08-23T05:34:13.696Z,9.20
2022-08-23T05:36:47.414Z,8.68
2022-08-23T05:39:32.939Z,8.13
2022-08-23T05:42:03.533Z,9.90
2022-08-23T05:44:30.273Z,10.32
2022-08-23T05:47:03.026Z,10.60
2022-08-23T05:49:32.279Z,10.93
2022-08-23T05:52:00.288Z,8.85
2022-08-23T05:54:27.080Z,8.23
2022-08-23T05:56:53.745Z,7.88
2022-08-23T05:59:20.463Z,8.37
2022-08-23T06:01:47.143Z,9.43
2022-08-23T06:04:17.329Z,8.38
2022-08-23T06:06:44.344Z,6.90
2022-08-23T06:09:14.919Z,8.13
2022-08-23T06:11:44.584Z,7.90
2022-08-23T06:14:12.195Z,6.72
2022-08-23T06:16:41.145Z,8.13
2022-08-23T06:19:09.302Z,14.18
2022-08-23T06:21:36.925Z,7.32
2022-08-23T06:24:04.659Z,9.20
2022-08-23T06:26:34.873Z,8.48
2022-08-23T06:29:04.218Z,9.38
2022-08-23T06:31:31.673Z,8.25
2022-08-23T06:34:00.764Z,9.35
2022-08-23T06:36:27.492Z,10.97
2022-08-23T06:38:54.623Z,8.75
2022-08-23T06:41:21.304Z,10.45
2022-08-23T06:43:50.356Z,7.00
2022-08-23T06:46:19.271Z,7.97
2022-08-23T06:48:46.921Z,7.77
2022-08-23T06:51:19.460Z,8.30
2022-08-23T06:53:47.119Z,8.85
2022-08-23T06:56:13.788Z,9.43
2022-08-23T06:58:40.641Z,10.93
2022-08-23T07:01:42.247Z,8.63
2022-08-23T07:04:06.893Z,8.35
2022-08-23T07:06:34.152Z,9.13
2022-08-23T07:09:01.591Z,7.53
2022-08-23T07:11:28.997Z,7.68
2022-08-23T07:13:55.651Z,7.87
2022-08-23T07:16:23.663Z,8.77
2022-08-23T07:18:50.275Z,7.70
2022-08-23T07:21:16.913Z,10.02
2022-08-23T07:23:46.443Z,6.70
2022-08-23T07:26:15.379Z,8.17
2022-08-23T07:28:42.892Z,8.38
2022-08-23T07:31:14.619Z,8.57
2022-08-23T07:33:44.573Z,7.45
2022-08-23T07:36:15.872Z,7.63
2022-08-23T07:38:42.786Z,8.67
2022-08-23T07:41:09.940Z,6.63
2022-08-23T07:43:36.652Z,6.22
2022-08-23T07:46:04.355Z,8.35
2022-08-23T07:48:52.406Z,8.57
2022-08-23T07:51:20.404Z,9.63
2022-08-23T07:53:47.705Z,7.68
2022-08-23T07:56:16.881Z,7.22
2022-08-23T07:58:43.583Z,6.05
2022-08-23T08:01:11.968Z,9.35
2022-08-23T08:03:38.806Z,6.77
2022-08-23T08:06:10.515Z,6.65
2022-08-23T08:08:39.209Z,7.32
2022-08-23T08:11:06.109Z,6.53
2022-08-23T08:13:33.561Z,6.53
2022-08-23T08:16:00.317Z,7.87
2022-08-23T08:18:27.078Z,7.90
2022-08-23T08:20:53.733Z,6.32
2022-08-23T08:23:20.323Z,5.00
2022-08-23T08:25:48.468Z,5.38
2022-08-23T08:28:16.087Z,8.37
2022-08-23T08:30:42.907Z,5.90
2022-08-23T08:33:09.769Z,5.82
2022-08-23T08:35:36.387Z,5.75
2022-08-23T08:38:03.551Z,7.63
2022-08-23T08:40:33.833Z,6.13
2022-08-23T08:43:17.046Z,4.90
2022-08-23T08:45:57.596Z,5.10
2022-08-23T08:48:27.772Z,5.10
2022-08-23T08:51:00.471Z,7.25
2022-08-23T08:53:31.479Z,7.03
2022-08-23T08:56:02.257Z,7.80
2022-08-23T08:58:45.892Z,6.97
2022-08-23T09:01:12.606Z,5.72
2022-08-23T09:03:40.223Z,4.65
2022-08-23T09:06:16.416Z,4.67
2022-08-23T09:08:55.094Z,6.00
2022-08-23T09:11:34.786Z,4.18
2022-08-23T09:14:20.184Z,5.03
2022-08-23T09:16:51.311Z,4.85
2022-08-23T09:19:19.271Z,6.03
2022-08-23T09:21:49.124Z,4.15
2022-08-23T09:24:16.351Z,5.35
2022-08-23T09:26:43.594Z,4.28
2022-08-23T09:29:25.429Z,6.57
2022-08-23T09:31:54.732Z,8.00
2022-08-23T09:34:36.924Z,6.20
2022-08-23T09:37:10.372Z,4.25
2022-08-23T09:39:39.584Z,6.20
2022-08-23T09:42:09.360Z,3.83
2022-08-23T09:44:42.050Z,3.87
2022-08-23T09:47:11.589Z,3.92
2022-08-23T09:49:39.507Z,4.10
2022-08-23T09:52:22.356Z,3.35
2022-08-23T09:54:59.235Z,4.10
2022-08-23T09:57:27.956Z,3.60
2022-08-23T10:00:02.020Z,2.70
2022-08-23T10:02:34.020Z,2.90
2022-08-23T10:05:03.857Z,3.17
2022-08-23T10:07:36.747Z,4.15
2022-08-23T10:10:27.649Z,3.33
2022-08-23T10:12:56.032Z,4.22
2022-08-23T10:15:36.459Z,2.95
2022-08-23T10:18:08.008Z,2.42
2022-08-23T10:20:41.912Z,3.28
2022-08-23T10:23:23.207Z,4.47
2022-08-23T10:25:55.198Z,5.03
2022-08-23T10:28:35.767Z,3.42
2022-08-23T10:31:18.283Z,3.22
2022-08-23T10:33:49.687Z,2.88
2022-08-23T10:36:23.375Z,2.20
2022-08-23T10:38:56.105Z,2.92
2022-08-23T10:41:44.661Z,5.00
2022-08-23T10:44:27.102Z,3.20
2022-08-23T10:47:12.860Z,2.03
2022-08-23T10:49:41.071Z,3.47
2022-08-23T10:52:12.371Z,3.13
2022-08-23T10:54:45.231Z,2.25
2022-08-23T10:57:15.785Z,3.95
2022-08-23T10:59:43.926Z,2.58
2022-08-23T11:02:25.960Z,3.33
2022-08-23T11:04:56.536Z,1.95
2022-08-23T11:07:28.285Z,2.83
2022-08-23T11:10:07.003Z,2.50
2022-08-23T11:12:56.053Z,3.25
2022-08-23T11:15:44.706Z,2.70
2022-08-23T11:18:38.884Z,8.10
2022-08-23T11:21:31.607Z,2.97
2022-08-23T11:24:31.344Z,2.50
2022-08-23T11:27:06.730Z,2.70
2022-08-23T11:29:40.299Z,2.63
2022-08-23T11:32:46.163Z,3.05
2022-08-23T11:35:33.138Z,2.45
2022-08-23T11:38:05.295Z,2.58
2022-08-23T11:40:43.603Z,2.75
2022-08-23T11:43:13.564Z,2.50
2022-08-23T11:45:44.832Z,2.55
2022-08-23T11:48:15.556Z,3.90
2022-08-23T11:51:03.658Z,2.75
2022-08-23T11:54:08.295Z,4.80
2022-08-23T11:56:52.131Z,3.93
2022-08-23T11:59:43.505Z,3.72
2022-08-23T12:02:33.889Z,3.80
2022-08-23T12:05:06.963Z,4.68
2022-08-23T12:07:45.404Z,3.90
2022-08-23T12:10:16.719Z,3.33
2022-08-23T12:12:47.306Z,3.00
2022-08-23T12:15:18.304Z,3.72
2022-08-23T12:18:03.866Z,4.28
2022-08-23T12:20:31.665Z,3.03
2022-08-23T12:23:07.384Z,4.47
2022-08-23T12:25:34.920Z,6.80
2022-08-23T12:28:10.684Z,4.38
2022-08-23T12:30:48.222Z,5.40
2022-08-23T12:33:28.739Z,3.67
2022-08-23T12:36:02.706Z,5.57
2022-08-23T12:38:41.550Z,4.38
2022-08-23T12:41:19.651Z,3.33
2022-08-23T12:44:01.275Z,3.10
2022-08-23T12:46:37.970Z,3.65
2022-08-23T12:49:07.213Z,3.13
2022-08-23T12:51:41.003Z,3.70
2022-08-23T12:54:15.667Z,3.28
2022-08-23T12:56:46.681Z,4.57
2022-08-23T12:59:32.161Z,3.47
2022-08-23T13:02:00.213Z,3.93
2022-08-23T13:04:27.491Z,5.63
2022-08-23T13:06:57.746Z,3.78
2022-08-23T13:09:29.586Z,3.78
2022-08-23T13:11:58.025Z,3.88
2022-08-23T13:14:33.909Z,3.27
2022-08-23T13:17:18.410Z,4.00
2022-08-23T13:19:45.763Z,4.05
2022-08-23T13:22:19.238Z,3.67
2022-08-23T13:27:53.842Z,4.73
2022-08-23T13:30:24.731Z,4.00
2022-08-23T13:33:13.188Z,3.08
2022-08-23T13:35:42.868Z,5.63
2022-08-23T13:38:21.403Z,3.80
2022-08-23T13:40:59.203Z,3.73
2022-08-23T13:43:31.824Z,4.22
2022-08-23T13:46:09.989Z,5.18
2022-08-23T13:48:37.132Z,4.38
2022-08-23T13:51:25.899Z,4.28
2022-08-23T13:53:52.776Z,3.80
2022-08-23T13:56:19.991Z,3.83
2022-08-23T13:58:56.422Z,4.82
2022-08-23T14:01:25.441Z,3.83
2022-08-23T14:03:52.650Z,3.53
2022-08-23T14:06:19.582Z,3.77
2022-08-23T14:08:46.403Z,3.45
2022-08-23T14:11:13.591Z,2.63
2022-08-23T14:13:40.256Z,3.80
2022-08-23T14:21:43.550Z,2.88
2022-08-23T14:24:10.515Z,2.83
2022-08-23T14:26:37.264Z,3.20
2022-08-23T14:29:04.857Z,2.67
2022-08-23T14:31:32.091Z,4.33
2022-08-23T14:34:02.020Z,5.78
2022-08-23T14:36:30.012Z,3.00
2022-08-23T14:38:56.865Z,3.13
2022-08-23T14:41:26.568Z,2.85
2022-08-23T14:43:53.247Z,3.90
2022-08-23T14:46:20.610Z,5.00
2022-08-23T14:48:47.463Z,3.58
2022-08-23T14:51:25.149Z,4.68
2022-08-23T14:53:52.162Z,4.07
2022-08-23T14:56:21.797Z,3.60
2022-08-23T14:58:49.014Z,3.85
2022-08-23T15:01:16.708Z,3.40
2022-08-23T15:03:43.878Z,2.72
2022-08-23T15:06:12.119Z,2.92
2022-08-23T15:08:40.441Z,2.90
2022-08-23T15:13:56.232Z,5.03
2022-08-23T15:16:23.477Z,2.97
2022-08-23T15:18:51.392Z,12.00
2022-08-23T15:21:19.139Z,6.90
2022-08-23T15:23:47.527Z,8.85
2022-08-23T15:26:16.195Z,6.25
2022-08-23T15:28:43.150Z,17.63
2022-08-23T15:31:09.889Z,8.10
2022-08-23T15:33:36.532Z,6.67
2022-08-23T15:36:05.708Z,8.88
2022-08-23T15:38:32.450Z,31.45
2022-08-23T15:41:01.051Z,4.35
2022-08-23T15:43:34.309Z,12.13
2022-08-23T15:46:04.389Z,4.23
2022-08-23T15:48:36.173Z,3.55
2022-08-23T15:51:04.765Z,3.28
2022-08-23T15:53:31.605Z,8.98
2022-08-23T15:56:05.512Z,4.93
2022-08-23T15:58:32.549Z,2.50
2022-08-23T16:00:59.245Z,3.05
2022-08-23T16:03:25.984Z,3.35
2022-08-23T16:05:53.503Z,3.40
2022-08-23T16:08:23.607Z,4.20
2022-08-23T16:10:50.516Z,3.20
2022-08-23T16:13:18.913Z,3.30
2022-08-23T16:15:45.879Z,4.60
2022-08-23T16:18:12.671Z,2.90
2022-08-23T16:20:39.892Z,2.78
2022-08-23T16:23:06.653Z,4.20
2022-08-23T16:25:33.644Z,3.60
2022-08-23T16:28:00.604Z,3.50
2022-08-23T16:30:29.218Z,3.00
2022-08-23T16:32:56.282Z,4.32
2022-08-23T16:35:23.344Z,3.80
2022-08-23T16:37:50.025Z,3.42
2022-08-23T16:40:17.121Z,3.83
2022-08-23T16:42:44.019Z,3.88
2022-08-23T16:45:11.706Z,3.60
2022-08-23T16:47:42.305Z,3.90
2022-08-23T16:50:13.419Z,4.32
2022-08-23T16:52:40.246Z,2.60
2022-08-23T16:55:09.600Z,3.85
2022-08-23T16:57:36.604Z,5.00
2022-08-23T17:00:08.177Z,4.23
2022-08-23T17:02:37.029Z,4.00
2022-08-23T17:05:07.314Z,3.35
2022-08-23T17:07:34.054Z,3.05
2022-08-23T17:10:00.743Z,4.53
2022-08-23T17:12:28.186Z,5.03
2022-08-23T17:14:54.969Z,3.65
2022-08-23T17:17:21.709Z,6.03
2022-08-23T17:19:48.400Z,3.38
2022-08-23T17:22:16.566Z,5.30
2022-08-23T17:24:46.905Z,5.90
2022-08-23T17:27:19.161Z,4.70
2022-08-23T17:29:46.359Z,3.15
2022-08-23T17:32:13.678Z,4.20
2022-08-23T17:34:40.350Z,4.60
2022-08-23T17:37:17.113Z,3.47
2022-08-23T17:39:43.978Z,2.97
2022-08-23T17:42:10.700Z,3.90
2022-08-23T17:44:37.499Z,4.25
2022-08-23T17:47:07.705Z,3.67
2022-08-23T17:49:34.639Z,2.87
2022-08-23T17:52:03.398Z,3.72
2022-08-23T17:54:31.481Z,5.20
2022-08-23T17:56:58.108Z,4.93
2022-08-23T17:59:24.789Z,3.65
2022-08-23T18:01:51.534Z,7.03
2022-08-23T18:04:18.427Z,5.00
2022-08-23T18:06:45.745Z,5.05
2022-08-23T18:09:12.786Z,4.30
2022-08-23T18:11:40.959Z,4.82
2022-08-23T18:14:08.309Z,3.93
2022-08-23T18:16:35.980Z,5.35
2022-08-23T18:19:05.127Z,3.42
2022-08-23T18:21:32.004Z,4.47
2022-08-23T18:23:59.140Z,3.40
2022-08-23T18:26:26.519Z,3.63
2022-08-23T18:28:54.564Z,4.93
2022-08-23T18:31:21.274Z,5.43
2022-08-23T18:33:48.044Z,4.07
2022-08-23T18:36:14.689Z,3.88
2022-08-23T18:38:41.446Z,5.00
2022-08-23T18:41:08.224Z,2.97
2022-08-23T18:43:37.543Z,5.03
2022-08-23T18:46:07.019Z,3.70
2022-08-23T18:48:34.058Z,3.13
2022-08-23T18:51:01.108Z,4.20
2022-08-23T18:53:27.928Z,3.67
2022-08-23T18:55:54.968Z,4.22
2022-08-23T18:58:22.863Z,4.32
2022-08-23T19:00:51.379Z,4.53
2022-08-23T19:03:19.608Z,3.97
2022-08-23T19:05:46.518Z,4.38
2022-08-23T19:08:13.856Z,4.57
2022-08-23T19:10:41.994Z,5.18
2022-08-23T19:13:09.782Z,3.65
2022-08-23T19:15:36.902Z,3.23
2022-08-23T19:18:04.543Z,2.75
2022-08-23T19:20:32.679Z,4.70
2022-08-23T19:22:59.662Z,3.28
2022-08-23T19:25:26.632Z,3.17
2022-08-23T19:27:53.372Z,7.33
2022-08-23T19:30:20.134Z,3.80
2022-08-23T19:32:46.818Z,4.28
2022-08-23T19:35:13.756Z,4.35
2022-08-23T19:37:41.886Z,4.28
2022-08-23T19:40:10.118Z,3.80
2022-08-23T19:42:36.794Z,3.10
2022-08-23T19:45:03.955Z,5.10
2022-08-23T19:47:30.644Z,5.95
2022-08-23T19:49:58.793Z,3.50
2022-08-23T19:52:25.765Z,4.20
2022-08-23T19:54:55.509Z,5.30
2022-08-23T19:57:23.053Z,5.05
2022-08-23T19:59:49.726Z,4.05
2022-08-23T20:02:17.157Z,5.22
2022-08-23T20:04:43.969Z,3.93
2022-08-23T20:07:10.563Z,4.07
2022-08-23T20:09:37.229Z,3.17
2022-08-23T20:12:05.877Z,4.32
2022-08-23T20:14:33.087Z,5.47
2022-08-23T20:17:00.513Z,4.30
2022-08-23T20:19:27.384Z,6.00
2022-08-23T20:21:54.286Z,4.75
2022-08-23T20:24:37.370Z,6.32
2022-08-23T20:27:09.065Z,5.28
2022-08-23T20:29:51.132Z,5.03
2022-08-23T20:32:18.138Z,3.67
2022-08-23T20:34:45.111Z,4.43
2022-08-23T20:37:13.278Z,4.75
2022-08-23T20:39:39.988Z,5.05
2022-08-23T20:42:07.972Z,4.33
2022-08-23T20:44:36.206Z,4.03
2022-08-23T20:47:03.370Z,5.75
2022-08-23T20:49:30.454Z,3.78
2022-08-23T20:51:57.172Z,6.03
2022-08-23T20:54:23.992Z,6.57
2022-08-23T20:56:51.883Z,8.27
2022-08-23T20:59:19.506Z,5.13
2022-08-23T21:01:48.096Z,6.07
2022-08-23T21:04:14.948Z,3.63
2022-08-23T21:06:45.265Z,5.37
2022-08-23T21:09:13.298Z,5.20
2022-08-23T21:11:40.289Z,5.35
2022-08-23T21:14:06.876Z,4.85
2022-08-23T21:16:33.650Z,5.50
2022-08-23T21:19:01.752Z,4.77
2022-08-23T21:21:28.801Z,5.53
2022-08-23T21:23:56.259Z,5.60
2022-08-23T21:26:23.592Z,5.22
2022-08-23T21:28:51.045Z,4.18
2022-08-23T21:31:20.824Z,4.80
2022-08-23T21:33:47.878Z,4.97
2022-08-23T21:36:17.301Z,5.25
2022-08-23T21:38:45.387Z,8.20
2022-08-23T21:41:28.418Z,5.47
2022-08-23T21:43:55.049Z,4.67
2022-08-23T21:46:21.766Z,4.55
2022-08-23T21:48:48.455Z,3.78
2022-08-23T21:51:16.461Z,5.38
2022-08-23T21:53:43.122Z,6.28
2022-08-23T21:56:09.712Z,5.70
2022-08-23T21:58:36.421Z,5.70
2022-08-23T22:01:03.088Z,5.10
2022-08-23T22:03:29.710Z,6.90
2022-08-23T22:05:56.392Z,5.97
2022-08-23T22:08:24.436Z,6.50
2022-08-23T22:10:58.048Z,5.72
2022-08-23T22:13:25.904Z,3.47
2022-08-23T22:15:52.711Z,5.18
2022-08-23T22:18:19.410Z,6.07
2022-08-23T22:20:46.084Z,5.60
2022-08-23T22:23:12.808Z,6.45
2022-08-23T22:25:40.821Z,5.07
2022-08-23T22:28:07.533Z,5.20
2022-08-23T22:30:34.248Z,6.97
2022-08-23T22:33:01.017Z,5.83
2022-08-23T22:35:27.785Z,6.45
2022-08-23T22:38:14.682Z,6.20
2022-08-23T22:40:48.696Z,5.93
2022-08-23T22:43:15.838Z,7.38
2022-08-23T22:45:49.551Z,6.07
2022-08-23T22:48:16.352Z,6.47
2022-08-23T22:50:43.058Z,6.28
2022-08-23T22:53:09.737Z,7.03
2022-08-23T22:55:36.321Z,5.47
2022-08-23T22:58:04.483Z,5.37
2022-08-23T23:00:31.370Z,5.80
2022-08-23T23:02:58.662Z,5.53
2022-08-23T23:05:25.452Z,6.40
2022-08-23T23:07:52.272Z,6.75
2022-08-23T23:10:19.274Z,4.37
2022-08-23T23:12:45.964Z,5.72
2022-08-23T23:15:14.318Z,6.28
2022-08-23T23:17:40.976Z,6.32
2022-08-23T23:20:08.883Z,5.28
2022-08-23T23:22:35.614Z,6.10
2022-08-23T23:25:02.333Z,6.00
2022-08-23T23:27:29.068Z,5.50
2022-08-23T23:29:55.772Z,5.32
2022-08-23T23:32:23.801Z,6.95
2022-08-23T23:34:50.818Z,6.83
2022-08-23T23:37:17.469Z,7.60
2022-08-23T23:39:44.129Z,6.15
2022-08-23T23:42:10.729Z,5.43
2022-08-23T23:44:37.352Z,6.88
2022-08-23T23:47:04.316Z,5.97
2022-08-23T23:49:33.667Z,6.75
2022-08-23T23:52:01.791Z,5.70
2022-08-23T23:54:28.502Z,5.88
2022-08-23T23:56:55.541Z,6.53
2022-08-23T23:59:22.227Z,6.87
